createdAt,value
2022-10-11T00:00:32.659Z,101358.50
2022-10-11T00:03:01.300Z,101369.91
2022-10-11T00:05:29.340Z,101392.81
2022-10-11T00:07:57.187Z,101405.00
2022-10-11T00:10:25.509Z,101393.53
2022-10-11T00:12:53.241Z,101372.91
2022-10-11T00:15:22.775Z,101406.63
2022-10-11T00:17:52.277Z,101407.72
2022-10-11T00:20:20.124Z,101433.16
2022-10-11T00:22:49.235Z,101429.25
2022-10-11T00:25:17.968Z,101418.84
2022-10-11T00:27:45.863Z,101427.97
2022-10-11T00:30:14.548Z,101404.53
2022-10-11T00:32:42.262Z,101397.00
2022-10-11T00:35:11.545Z,101402.03
2022-10-11T00:37:40.355Z,101431.59
2022-10-11T00:40:11.910Z,101416.84
2022-10-11T00:42:39.598Z,101417.50
2022-10-11T00:45:54.130Z,101429.25
2022-10-11T00:48:27.418Z,101421.09
2022-10-11T00:51:00.013Z,101393.81
2022-10-11T00:53:30.936Z,101384.50
2022-10-11T00:56:04.217Z,101389.50
2022-10-11T00:58:34.579Z,101409.88
2022-10-11T01:01:02.385Z,101404.97
2022-10-11T01:03:32.309Z,101429.00
2022-10-11T01:06:03.434Z,101425.28
2022-10-11T01:08:32.419Z,101423.69
2022-10-11T01:11:00.662Z,101425.47
2022-10-11T01:13:42.278Z,101421.34
2022-10-11T01:16:16.361Z,101416.03
2022-10-11T01:18:50.811Z,101415.00
2022-10-11T01:21:31.985Z,101412.66
2022-10-11T01:24:20.830Z,101441.66
2022-10-11T01:27:20.707Z,101470.91
2022-10-11T01:29:55.699Z,101496.41
2022-10-11T01:32:30.808Z,101449.09
2022-10-11T01:35:03.974Z,101442.25
2022-10-11T01:37:36.033Z,101456.69
2022-10-11T01:40:09.783Z,101491.66
2022-10-11T01:42:39.599Z,101466.13
2022-10-11T01:45:10.437Z,101434.31
2022-10-11T01:47:39.829Z,101437.31
2022-10-11T01:50:28.651Z,101435.53
2022-10-11T01:53:00.047Z,101448.47
2022-10-11T01:55:39.107Z,101436.72
2022-10-11T01:58:15.389Z,101423.09
2022-10-11T02:00:53.845Z,101423.25
2022-10-11T02:03:34.988Z,101442.41
2022-10-11T02:06:09.599Z,101470.06
2022-10-11T02:08:45.231Z,101492.63
2022-10-11T02:11:17.779Z,101525.63
2022-10-11T02:13:50.404Z,101561.09
2022-10-11T02:16:22.760Z,101570.88
2022-10-11T02:18:55.204Z,101580.50
2022-10-11T02:21:25.739Z,101590.78
2022-10-11T02:23:59.543Z,101621.00
2022-10-11T02:26:31.460Z,101635.47
2022-10-11T02:29:02.260Z,101623.56
2022-10-11T02:31:31.563Z,101645.69
2022-10-11T02:34:08.619Z,101662.69
2022-10-11T02:36:45.589Z,101682.22
2022-10-11T02:39:18.840Z,101693.03
2022-10-11T02:41:48.050Z,101716.03
2022-10-11T02:44:21.748Z,101743.88
2022-10-11T02:46:51.228Z,101728.22
2022-10-11T02:49:21.790Z,101736.50
2022-10-11T02:51:49.454Z,101727.34
2022-10-11T02:54:17.213Z,101726.28
2022-10-11T02:56:44.892Z,101722.94
2022-10-11T02:59:12.847Z,101696.16
2022-10-11T03:01:40.663Z,101678.69
2022-10-11T03:04:08.461Z,101681.59
2022-10-11T03:06:37.512Z,101672.31
2022-10-11T03:09:05.377Z,101669.66
2022-10-11T03:11:33.146Z,101692.06
2022-10-11T03:14:00.837Z,101695.09
2022-10-11T03:16:28.499Z,101684.00
2022-10-11T03:18:56.185Z,101688.69
2022-10-11T03:21:25.175Z,101702.19
2022-10-11T03:23:54.252Z,101718.31
2022-10-11T03:26:21.940Z,101747.56
2022-10-11T03:28:49.720Z,101767.53
2022-10-11T03:31:18.559Z,101792.69
2022-10-11T03:33:46.247Z,101789.81
2022-10-11T03:36:13.970Z,101792.59
2022-10-11T03:38:41.653Z,101775.72
2022-10-11T03:41:10.754Z,101747.56
2022-10-11T03:43:38.455Z,101743.16
2022-10-11T03:46:06.890Z,101742.88
2022-10-11T03:48:35.090Z,101762.69
2022-10-11T03:51:02.853Z,101777.22
2022-10-11T03:53:30.589Z,101753.56
2022-10-11T03:55:58.282Z,101777.38
2022-10-11T03:58:27.430Z,101810.47
2022-10-11T04:00:55.131Z,101826.56
2022-10-11T04:03:22.843Z,101846.22
2022-10-11T04:05:50.790Z,101843.75
2022-10-11T04:08:18.916Z,101841.78
2022-10-11T04:10:46.636Z,101837.97
2022-10-11T04:13:14.319Z,101860.84
2022-10-11T04:15:43.394Z,101877.88
2022-10-11T04:18:17.057Z,101881.06
2022-10-11T04:20:44.755Z,101867.53
2022-10-11T04:23:12.441Z,101897.56
2022-10-11T04:25:41.218Z,101899.84
2022-10-11T04:28:09.674Z,101882.41
2022-10-11T04:30:37.518Z,101893.84
2022-10-11T04:33:07.033Z,101892.31
2022-10-11T04:35:34.938Z,101902.78
2022-10-11T04:38:02.664Z,101912.66
2022-10-11T04:40:30.546Z,101945.78
2022-10-11T04:42:58.227Z,101961.31
2022-10-11T04:45:26.287Z,101964.16
2022-10-11T04:47:54.031Z,101969.34
2022-10-11T04:50:23.131Z,101972.66
2022-10-11T04:52:50.823Z,102004.66
2022-10-11T04:55:18.712Z,102034.00
2022-10-11T04:57:46.421Z,102051.00
2022-10-11T05:00:15.781Z,102069.88
2022-10-11T05:02:43.542Z,102111.16
2022-10-11T05:05:12.935Z,102131.28
2022-10-11T05:07:42.094Z,102158.78
2022-10-11T05:10:10.982Z,102167.38
2022-10-11T05:12:38.806Z,102172.66
2022-10-11T05:15:07.962Z,102172.25
2022-10-11T05:17:35.682Z,102180.63
2022-10-11T05:20:03.397Z,102186.53
2022-10-11T05:22:31.106Z,102188.41
2022-10-11T05:25:00.160Z,102202.06
2022-10-11T05:27:27.867Z,102210.66
2022-10-11T05:29:55.531Z,102222.69
2022-10-11T05:32:26.705Z,102226.22
2022-10-11T05:34:55.633Z,102246.38
2022-10-11T05:37:23.366Z,102263.16
2022-10-11T05:39:51.151Z,102248.81
2022-10-11T05:42:20.227Z,102232.94
2022-10-11T05:44:47.937Z,102223.19
2022-10-11T05:47:15.629Z,102217.69
2022-10-11T05:49:43.311Z,102200.31
2022-10-11T05:52:11.201Z,102193.31
2022-10-11T05:54:38.964Z,102154.56
2022-10-11T05:57:06.653Z,102150.34
2022-10-11T05:59:36.898Z,102152.22
2022-10-11T06:02:04.652Z,102133.72
2022-10-11T06:04:32.359Z,102124.28
2022-10-11T06:07:00.031Z,102116.13
2022-10-11T06:09:27.722Z,102101.91
2022-10-11T06:11:55.391Z,102098.97
2022-10-11T06:14:23.140Z,102075.38
2022-10-11T06:16:52.176Z,102071.56
2022-10-11T06:19:19.995Z,102079.19
2022-10-11T06:21:48.412Z,102079.03
2022-10-11T06:24:16.400Z,102053.13
2022-10-11T06:26:44.110Z,102035.31
2022-10-11T06:29:11.772Z,102008.94
2022-10-11T06:31:39.501Z,102011.44
2022-10-11T06:34:08.548Z,102006.47
2022-10-11T06:36:36.247Z,102002.13
2022-10-11T06:39:04.123Z,102008.84
2022-10-11T06:41:32.194Z,101992.53
2022-10-11T06:44:00.277Z,101993.25
2022-10-11T06:46:29.070Z,101986.06
2022-10-11T06:48:57.383Z,101962.41
2022-10-11T06:51:28.601Z,101945.84
2022-10-11T06:53:58.690Z,101921.59
2022-10-11T06:56:28.204Z,101906.56
2022-10-11T06:58:57.230Z,101909.06
2022-10-11T07:01:25.331Z,101906.88
2022-10-11T07:03:54.419Z,101904.38
2022-10-11T07:06:24.234Z,101865.69
2022-10-11T07:08:53.758Z,101850.81
2022-10-11T07:11:24.083Z,101838.31
2022-10-11T07:13:53.656Z,101828.75
2022-10-11T07:16:22.295Z,101791.84
2022-10-11T07:18:59.545Z,101785.22
2022-10-11T07:21:29.146Z,101781.47
2022-10-11T07:23:58.253Z,101761.97
2022-10-11T07:26:26.052Z,101766.56
2022-10-11T07:28:53.816Z,101745.13
2022-10-11T07:31:23.405Z,101736.19
2022-10-11T07:33:51.148Z,101748.75
2022-10-11T07:36:19.173Z,101736.47
2022-10-11T07:38:50.039Z,101733.13
2022-10-11T07:41:19.894Z,101737.31
2022-10-11T07:43:49.935Z,101704.09
2022-10-11T07:46:18.688Z,101693.94
2022-10-11T07:48:46.504Z,101711.44
2022-10-11T07:51:16.271Z,101739.22
2022-10-11T07:53:45.873Z,101821.94
2022-10-11T07:56:16.347Z,101854.41
2022-10-11T07:58:45.740Z,101880.38
2022-10-11T08:01:14.617Z,101926.50
2022-10-11T08:03:42.444Z,101975.09
2022-10-11T08:06:11.047Z,102001.81
2022-10-11T08:08:39.104Z,102009.31
2022-10-11T08:11:07.272Z,102045.75
2022-10-11T08:13:36.590Z,102049.13
2022-10-11T08:16:12.687Z,102061.13
2022-10-11T08:18:40.822Z,102091.47
2022-10-11T08:21:09.540Z,102126.81
2022-10-11T08:23:37.283Z,102150.25
2022-10-11T08:26:05.676Z,102158.38
2022-10-11T08:28:34.172Z,102160.88
2022-10-11T08:31:03.009Z,102176.88
2022-10-11T08:33:32.215Z,102179.97
2022-10-11T08:35:59.890Z,102175.88
2022-10-11T08:38:27.602Z,102216.66
2022-10-11T08:40:57.321Z,102212.44
2022-10-11T08:43:33.995Z,102200.19
2022-10-11T08:46:04.260Z,102206.75
2022-10-11T08:48:37.816Z,102222.16
2022-10-11T08:51:14.908Z,102219.25
2022-10-11T08:53:50.141Z,102214.69
2022-10-11T08:56:18.768Z,102219.28
2022-10-11T08:58:51.497Z,102226.47
2022-10-11T09:01:21.844Z,102247.53
2022-10-11T09:03:51.700Z,102243.63
2022-10-11T09:06:42.548Z,102255.94
2022-10-11T09:09:27.713Z,102255.13
2022-10-11T09:12:10.339Z,102267.16
2022-10-11T09:15:02.061Z,102272.78
2022-10-11T09:17:43.854Z,102274.63
2022-10-11T09:20:47.073Z,102287.91
2022-10-11T09:23:29.338Z,102281.38
2022-10-11T09:26:03.875Z,102303.31
2022-10-11T09:28:44.331Z,102302.34
2022-10-11T09:31:12.653Z,102299.03
2022-10-11T09:33:45.670Z,102292.38
2022-10-11T09:36:21.292Z,102301.19
2022-10-11T09:38:55.423Z,102305.31
2022-10-11T09:41:30.178Z,102303.41
2022-10-11T09:43:57.933Z,102324.09
2022-10-11T09:46:33.128Z,102331.78
2022-10-11T09:49:03.641Z,102319.44
2022-10-11T09:51:33.878Z,102326.66
2022-10-11T09:54:04.817Z,102332.19
2022-10-11T09:56:34.671Z,102332.28
2022-10-11T09:59:19.186Z,102331.75
2022-10-11T10:01:46.932Z,102334.44
2022-10-11T10:04:17.696Z,102348.03
2022-10-11T10:06:46.918Z,102341.47
2022-10-11T10:09:30.098Z,102334.75
2022-10-11T10:11:58.673Z,102347.97
2022-10-11T10:14:28.598Z,102349.56
2022-10-11T10:17:02.983Z,102346.00
2022-10-11T10:19:33.222Z,102363.78
2022-10-11T10:22:02.519Z,102342.28
2022-10-11T10:24:38.900Z,102340.41
2022-10-11T10:27:16.942Z,102340.97
2022-10-11T10:29:45.538Z,102355.16
2022-10-11T10:32:15.671Z,102350.94
2022-10-11T10:34:57.717Z,102352.19
2022-10-11T10:37:33.147Z,102353.19
2022-10-11T10:40:06.988Z,102364.53
2022-10-11T10:42:34.753Z,102362.66
2022-10-11T10:45:03.025Z,102364.28
2022-10-11T10:47:50.751Z,102357.13
2022-10-11T10:50:24.140Z,102356.88
2022-10-11T10:53:06.517Z,102358.28
2022-10-11T10:55:38.631Z,102352.69
2022-10-11T10:58:18.771Z,102350.94
2022-10-11T11:00:49.360Z,102353.69
2022-10-11T11:03:25.105Z,102349.13
2022-10-11T11:06:04.188Z,102346.78
2022-10-11T11:08:53.824Z,102353.44
2022-10-11T11:11:36.958Z,102355.72
2022-10-11T11:14:17.883Z,102353.66
2022-10-11T11:16:54.736Z,102356.72
2022-10-11T11:19:36.166Z,102354.56
2022-10-11T11:22:11.525Z,102354.66
2022-10-11T11:24:53.735Z,102353.44
2022-10-11T11:27:38.047Z,102364.44
2022-10-11T11:30:10.744Z,102376.16
2022-10-11T11:32:48.002Z,102369.13
2022-10-11T11:35:28.119Z,102362.03
2022-10-11T11:38:06.234Z,102351.22
2022-10-11T11:40:40.455Z,102361.22
2022-10-11T11:43:16.961Z,102358.38
2022-10-11T11:45:48.480Z,102384.91
2022-10-11T11:48:20.708Z,102373.44
2022-10-11T11:50:57.572Z,102353.97
2022-10-11T11:53:42.467Z,102360.78
2022-10-11T11:56:24.223Z,102356.53
2022-10-11T11:58:58.872Z,102365.47
2022-10-11T12:01:33.273Z,102371.56
2022-10-11T12:04:04.805Z,102371.78
2022-10-11T12:06:35.919Z,102366.03
2022-10-11T12:09:08.941Z,102363.06
2022-10-11T12:11:52.191Z,102371.81
2022-10-11T12:14:35.133Z,102355.06
2022-10-11T12:17:11.518Z,102356.78
2022-10-11T12:19:41.789Z,102360.63
2022-10-11T12:22:36.689Z,102360.31
2022-10-11T12:25:33.155Z,102355.03
2022-10-11T12:28:03.755Z,102359.66
2022-10-11T12:30:54.525Z,102363.66
2022-10-11T12:33:24.210Z,102366.38
2022-10-11T12:36:04.024Z,102361.44
2022-10-11T12:38:37.754Z,102368.00
2022-10-11T12:41:49.746Z,102369.25
2022-10-11T12:44:29.171Z,102365.25
2022-10-11T12:47:23.123Z,102360.00
2022-10-11T12:50:03.496Z,102369.09
2022-10-11T12:52:42.147Z,102368.34
2022-10-11T12:55:31.174Z,102367.19
2022-10-11T12:58:25.574Z,102374.66
2022-10-11T13:01:18.671Z,102375.56
2022-10-11T13:03:52.977Z,102369.19
2022-10-11T13:06:24.810Z,102366.69
2022-10-11T13:08:56.968Z,102370.72
2022-10-11T13:11:29.205Z,102365.63
2022-10-11T13:13:58.809Z,102361.44
2022-10-11T13:16:31.197Z,102371.00
2022-10-11T13:19:00.985Z,102367.00
2022-10-11T13:21:36.006Z,102352.75
2022-10-11T13:24:11.231Z,102359.78
2022-10-11T13:26:39.572Z,102354.88
2022-10-11T13:29:16.798Z,102363.75
2022-10-11T13:31:49.209Z,102360.84
2022-10-11T13:34:22.363Z,102347.25
2022-10-11T13:36:56.308Z,102353.22
2022-10-11T13:39:31.284Z,102355.91
2022-10-11T13:42:00.758Z,102358.97
2022-10-11T13:44:28.841Z,102358.31
2022-10-11T13:46:57.940Z,102354.41
2022-10-11T13:49:37.033Z,102319.75
2022-10-11T13:52:08.356Z,102321.53
2022-10-11T13:54:55.418Z,102245.72
2022-10-11T13:57:28.776Z,102184.69
2022-10-11T13:59:56.559Z,102147.72
2022-10-11T14:02:28.073Z,102121.16
2022-10-11T14:04:55.850Z,102103.88
2022-10-11T14:07:27.122Z,102082.59
2022-10-11T14:09:55.800Z,102085.22
2022-10-11T14:12:30.284Z,102095.69
2022-10-11T14:14:58.434Z,102093.19
2022-10-11T14:17:41.796Z,102098.19
2022-10-11T14:20:21.067Z,102125.34
2022-10-11T14:22:51.867Z,102130.22
2022-10-11T14:25:19.994Z,102106.63
2022-10-11T14:27:48.204Z,102116.88
2022-10-11T14:30:27.455Z,102185.72
2022-10-11T14:33:00.567Z,102231.72
2022-10-11T14:35:29.997Z,102321.09
2022-10-11T14:37:57.807Z,102323.16
2022-10-11T14:40:28.081Z,102320.44
2022-10-11T14:42:56.913Z,102301.97
2022-10-11T14:45:25.353Z,102297.28
2022-10-11T14:47:53.116Z,102291.75
2022-10-11T14:50:40.425Z,102281.16
2022-10-11T14:53:09.316Z,102266.91
2022-10-11T14:55:38.454Z,102262.81
2022-10-11T14:58:07.172Z,102254.63
2022-10-11T15:00:35.268Z,102230.56
2022-10-11T15:03:02.989Z,102226.22
2022-10-11T15:05:34.248Z,102213.56
2022-10-11T15:08:04.001Z,102230.28
2022-10-11T15:10:35.327Z,102219.22
2022-10-11T15:13:03.782Z,102205.81
2022-10-11T15:15:35.330Z,102216.19
2022-10-11T15:18:04.982Z,102191.63
2022-10-11T15:20:35.760Z,102183.41
2022-10-11T15:23:07.730Z,102194.31
2022-10-11T15:25:35.678Z,102199.66
2022-10-11T15:28:03.572Z,102198.09
2022-10-11T15:30:38.460Z,102207.81
2022-10-11T15:33:09.015Z,102220.34
2022-10-11T15:35:36.759Z,102219.22
2022-10-11T15:38:05.804Z,102220.91
2022-10-11T15:40:39.509Z,102231.69
2022-10-11T15:43:07.268Z,102213.50
2022-10-11T15:45:36.297Z,102211.31
2022-10-11T15:48:04.028Z,102238.34
2022-10-11T15:50:37.537Z,102240.13
2022-10-11T15:53:08.582Z,102230.13
2022-10-11T15:55:39.645Z,102227.66
2022-10-11T15:58:08.184Z,102239.19
2022-10-11T16:00:35.995Z,102243.66
2022-10-11T16:03:03.801Z,102247.84
2022-10-11T16:05:31.705Z,102237.19
2022-10-11T16:07:59.966Z,102217.53
2022-10-11T16:10:29.045Z,102216.44
2022-10-11T16:12:57.053Z,102206.41
2022-10-11T16:15:25.716Z,102223.53
2022-10-11T16:18:10.482Z,102237.03
2022-10-11T16:20:38.664Z,102233.50
2022-10-11T16:23:06.412Z,102248.53
2022-10-11T16:25:35.697Z,102252.69
2022-10-11T16:28:04.188Z,102243.31
2022-10-11T16:30:32.037Z,102235.28
2022-10-11T16:32:59.747Z,102240.22
2022-10-11T16:35:32.283Z,102246.81
2022-10-11T16:38:01.198Z,102238.09
2022-10-11T16:40:30.084Z,102231.22
2022-10-11T16:43:07.267Z,102236.06
2022-10-11T16:45:36.010Z,102214.94
2022-10-11T16:48:04.496Z,102216.53
2022-10-11T16:50:35.628Z,102218.16
2022-10-11T16:53:06.970Z,102210.50
2022-10-11T16:55:34.682Z,102195.41
2022-10-11T16:58:03.739Z,102212.81
2022-10-11T17:00:31.511Z,102214.78
2022-10-11T17:02:59.352Z,102205.81
2022-10-11T17:05:27.136Z,102214.38
2022-10-11T17:07:54.851Z,102204.13
2022-10-11T17:10:39.192Z,102201.28
2022-10-11T17:13:08.414Z,102199.19
2022-10-11T17:15:37.215Z,102212.19
2022-10-11T17:18:05.118Z,102205.94
2022-10-11T17:20:32.898Z,102210.78
2022-10-11T17:23:00.618Z,102200.53
2022-10-11T17:25:28.376Z,102206.50
2022-10-11T17:27:56.164Z,102188.69
2022-10-11T17:30:26.134Z,102172.03
2022-10-11T17:32:53.913Z,102155.19
2022-10-11T17:35:21.618Z,102149.16
2022-10-11T17:37:49.882Z,102151.72
2022-10-11T17:40:17.843Z,102144.53
2022-10-11T17:42:47.656Z,102136.28
2022-10-11T17:45:17.914Z,102143.97
2022-10-11T17:47:46.972Z,102145.69
2022-10-11T17:50:14.815Z,102124.94
2022-10-11T17:52:42.502Z,102140.91
2022-10-11T17:55:10.388Z,102137.50
2022-10-11T17:57:38.091Z,102140.78
2022-10-11T18:00:07.226Z,102150.34
2022-10-11T18:02:34.973Z,102127.34
2022-10-11T18:05:04.288Z,102129.22
2022-10-11T18:07:31.963Z,102126.75
2022-10-11T18:09:59.677Z,102127.22
2022-10-11T18:12:27.455Z,102134.81
2022-10-11T18:14:55.075Z,102117.31
2022-10-11T18:17:22.772Z,102105.56
2022-10-11T18:19:52.862Z,102107.22
2022-10-11T18:22:22.372Z,102122.41
2022-10-11T18:24:50.045Z,102102.16
2022-10-11T18:27:17.794Z,102106.69
2022-10-11T18:29:45.469Z,102118.53
2022-10-11T18:32:13.218Z,102123.59
2022-10-11T18:34:41.038Z,102110.25
2022-10-11T18:37:08.724Z,102108.22
2022-10-11T18:39:37.771Z,102122.28
2022-10-11T18:42:05.638Z,102145.16
2022-10-11T18:44:33.392Z,102147.75
2022-10-11T18:47:01.215Z,102139.34
2022-10-11T18:49:28.942Z,102138.31
2022-10-11T18:51:56.607Z,102147.34
2022-10-11T18:54:24.450Z,102143.19
2022-10-11T18:56:53.516Z,102129.16
2022-10-11T18:59:21.179Z,102130.88
2022-10-11T19:01:52.045Z,102137.06
2022-10-11T19:04:20.645Z,102116.00
2022-10-11T19:06:49.558Z,102104.59
2022-10-11T19:09:22.192Z,102117.34
2022-10-11T19:11:51.037Z,102103.91
2022-10-11T19:14:22.023Z,102108.38
2022-10-11T19:16:52.108Z,102107.19
2022-10-11T19:19:21.069Z,102109.22
2022-10-11T19:21:49.476Z,102104.31
2022-10-11T19:24:17.912Z,102088.94
2022-10-11T19:26:46.094Z,102089.72
2022-10-11T19:29:15.703Z,102101.03
2022-10-11T19:31:47.084Z,102105.78
2022-10-11T19:34:15.498Z,102118.84
2022-10-11T19:36:43.726Z,102122.38
2022-10-11T19:39:13.232Z,102105.84
2022-10-11T19:41:41.311Z,102101.13
2022-10-11T19:44:09.032Z,102103.09
2022-10-11T19:46:52.937Z,102104.72
2022-10-11T19:49:25.237Z,102097.28
2022-10-11T19:51:55.047Z,102110.28
2022-10-11T19:54:23.419Z,102117.28
2022-10-11T19:56:51.245Z,102119.84
2022-10-11T19:59:19.713Z,102118.19
2022-10-11T20:01:52.348Z,102109.53
2022-10-11T20:04:50.670Z,102110.31
2022-10-11T20:07:19.906Z,102098.22
2022-10-11T20:09:48.170Z,102110.78
2022-10-11T20:12:15.964Z,102122.47
2022-10-11T20:14:43.719Z,102133.13
2022-10-11T20:17:11.611Z,102121.84
2022-10-11T20:19:41.473Z,102098.84
2022-10-11T20:22:09.219Z,102130.16
2022-10-11T20:24:56.258Z,102103.50
2022-10-11T20:27:24.342Z,102112.72
2022-10-11T20:29:52.682Z,102116.03
2022-10-11T20:32:20.532Z,102137.19
2022-10-11T20:34:49.841Z,102109.44
2022-10-11T20:37:17.614Z,102099.84
2022-10-11T20:39:45.770Z,102103.81
2022-10-11T20:42:13.889Z,102107.09
2022-10-11T20:44:43.680Z,102115.22
2022-10-11T20:47:11.507Z,102128.69
2022-10-11T20:49:42.403Z,102126.78
2022-10-11T20:52:18.903Z,102137.13
2022-10-11T20:54:48.383Z,102142.19
2022-10-11T20:57:16.222Z,102114.91
2022-10-11T20:59:44.047Z,102122.56
2022-10-11T21:02:15.373Z,102118.50
2022-10-11T21:04:45.950Z,102120.91
2022-10-11T21:07:15.191Z,102132.38
2022-10-11T21:09:43.052Z,102129.09
2022-10-11T21:12:10.738Z,102128.00
2022-10-11T21:14:38.462Z,102113.16
2022-10-11T21:17:06.160Z,102135.25
2022-10-11T21:19:33.842Z,102121.84
2022-10-11T21:22:01.709Z,102111.28
2022-10-11T21:24:30.758Z,102107.72
2022-10-11T21:27:00.809Z,102123.81
2022-10-11T21:29:28.691Z,102127.13
2022-10-11T21:31:56.398Z,102129.22
2022-10-11T21:34:24.117Z,102115.97
2022-10-11T21:36:51.800Z,102099.91
2022-10-11T21:39:19.494Z,102104.53
2022-10-11T21:41:48.571Z,102124.66
2022-10-11T21:44:16.253Z,102114.72
2022-10-11T21:49:31.615Z,102099.56
2022-10-11T21:51:59.650Z,102084.34
2022-10-11T21:54:27.608Z,102092.13
2022-10-11T21:56:56.668Z,102075.84
2022-10-11T21:59:24.341Z,102073.72
2022-10-11T22:01:52.090Z,102059.13
2022-10-11T22:04:19.813Z,102071.19
2022-10-11T22:06:47.524Z,102084.75
2022-10-11T22:09:15.282Z,102079.09
2022-10-11T22:11:42.966Z,102089.88
2022-10-11T22:14:12.009Z,102090.56
2022-10-11T22:16:39.714Z,102092.22
2022-10-11T22:19:07.678Z,102119.72
2022-10-11T22:21:35.443Z,102103.28
2022-10-11T22:24:03.119Z,102117.78
2022-10-11T22:26:32.157Z,102104.47
2022-10-11T22:29:00.597Z,102099.06
2022-10-11T22:31:30.377Z,102111.41
2022-10-11T22:34:00.044Z,102117.84
2022-10-11T22:36:28.571Z,102111.34
2022-10-11T22:38:56.303Z,102106.94
2022-10-11T22:41:24.400Z,102105.31
2022-10-11T22:43:52.410Z,102106.75
2022-10-11T22:46:20.110Z,102092.34
2022-10-11T22:48:49.173Z,102066.63
2022-10-11T22:51:16.897Z,102043.28
2022-10-11T22:53:44.571Z,102030.38
2022-10-11T22:56:12.278Z,102028.28
2022-10-11T22:58:39.986Z,102046.88
2022-10-11T23:01:08.919Z,102066.28
2022-10-11T23:03:37.088Z,102064.94
2022-10-11T23:06:06.744Z,102082.91
2022-10-11T23:08:34.388Z,102084.78
2022-10-11T23:11:04.777Z,102094.06
2022-10-11T23:13:32.473Z,102089.91
2022-10-11T23:16:00.260Z,102101.53
2022-10-11T23:18:27.981Z,102103.41
2022-10-11T23:20:56.081Z,102101.44
2022-10-11T23:23:25.183Z,102089.47
2022-10-11T23:26:01.542Z,102089.34
2022-10-11T23:28:29.352Z,102095.25
2022-10-11T23:30:57.087Z,102089.72
2022-10-11T23:33:24.890Z,102109.75
2022-10-11T23:35:52.568Z,102107.19
2022-10-11T23:38:20.488Z,102102.91
2022-10-11T23:40:49.532Z,102107.84
2022-10-11T23:43:17.262Z,102114.66
2022-10-11T23:45:45.144Z,102114.59
2022-10-11T23:48:12.840Z,102112.53
2022-10-11T23:50:40.663Z,102114.88
2022-10-11T23:53:08.340Z,102098.84
2022-10-11T23:55:36.569Z,102110.78
2022-10-11T23:58:05.609Z,102114.41
